Fox Island, Washington
Current Conditions -  °F | °C
As of 9:53 AM on Tuesday 21 Oct 2014 (Local Time) from KTIW Reporting Station
Scattered Clouds Scattered Clouds  
Wind Chill: 56°   Ceiling: Unl
Heat Index: 56°   Visibility: 10mi
Dew Point: 50°   Wind: 10mph
Humidity: 80%   Direction: 180°S
Pressure: 29.92"   Gusts: NA
Location:  47.25°N, 122.63°W
Report Text: KTIW 211653Z 18009KT 10SM FEW030 SCT100 13/10 A2992 RMK AO2 SLP130 T01330100
Loading
Personal Weather Stations






























Interactive Weather Map
Tropical Storm Tracking
New forecast layout! Learn more

10-Day Weather Forecast

Advertisements
Track Severe Weather on mobile